Time;durP1;ratioP1;P1;durP2;ratioP2;P2;SDS_P1;SDS_P2;PMS_P1;PMS_P2;Temp;Humidity;BMP_temperature;BMP_pressure;BME280_temperature;BME280_humidity;BME280_pressure;Samples;Min_cycle;Max_cycle;Signal;HPM_P1;HPM_P2
2022/10/12 00:02:25;;;;;;;11.43;7.75;;;24.20;48.30;;;;;;7679371;22;81080;-49
2022/10/12 00:05:26;;;;;;;11.93;7.55;;;24.20;48.30;;;;;;7678963;22;80346;-50
2022/10/12 00:08:26;;;;;;;11.38;8.07;;;24.10;48.30;;;;;;7678017;22;85104;-50
2022/10/12 00:11:27;;;;;;;10.98;7.88;;;24.20;48.30;;;;;;7677525;22;81551;-50
2022/10/12 00:14:27;;;;;;;11.45;8.07;;;24.20;48.30;;;;;;7678038;22;80340;-46
2022/10/12 00:17:28;;;;;;;11.00;7.50;;;24.20;48.40;;;;;;7675664;22;80961;-50
2022/10/12 00:20:28;;;;;;;13.00;8.57;;;24.10;48.40;;;;;;7680440;22;79918;-50
2022/10/12 00:23:29;;;;;;;12.13;8.30;;;24.10;48.30;;;;;;7677130;22;81402;-48
2022/10/12 00:26:30;;;;;;;14.40;8.00;;;24.10;48.40;;;;;;7679111;22;81172;-50
2022/10/12 00:29:30;;;;;;;14.02;8.30;;;24.20;48.40;;;;;;7677809;22;81538;-47
2022/10/12 00:32:31;;;;;;;11.55;8.48;;;24.20;48.30;;;;;;7680924;22;80809;-48
2022/10/12 00:35:31;;;;;;;11.45;8.13;;;24.20;48.40;;;;;;7676550;22;86518;-55
2022/10/12 00:38:32;;;;;;;11.43;7.70;;;24.10;48.40;;;;;;7675848;22;81632;-53
2022/10/12 00:41:32;;;;;;;10.73;7.50;;;24.10;48.40;;;;;;7679537;22;80181;-51
2022/10/12 00:44:33;;;;;;;11.23;8.43;;;24.10;48.30;;;;;;7677219;22;80541;-51
2022/10/12 00:47:33;;;;;;;12.48;8.82;;;24.20;48.40;;;;;;7677831;22;80776;-48
2022/10/12 00:50:34;;;;;;;11.85;8.48;;;24.10;48.30;;;;;;7653142;22;80310;-50
2022/10/12 00:53:34;;;;;;;10.65;8.10;;;24.10;48.40;;;;;;7677228;22;81689;-49
2022/10/12 00:56:35;;;;;;;10.80;8.32;;;24.10;48.30;;;;;;7677747;22;80459;-62
2022/10/12 00:59:35;;;;;;;9.88;7.82;;;24.10;48.40;;;;;;7677944;22;80002;-61
2022/10/12 01:02:36;;;;;;;10.70;8.15;;;24.10;48.40;;;;;;7678868;22;80296;-61
2022/10/12 01:05:36;;;;;;;13.63;8.32;;;24.10;48.30;;;;;;7677732;22;80623;-58
2022/10/12 01:08:37;;;;;;;10.68;8.15;;;24.10;48.30;;;;;;7679468;22;80373;-60
2022/10/12 01:11:37;;;;;;;13.55;9.18;;;24.10;48.20;;;;;;7680473;22;80904;-61
2022/10/12 01:14:38;;;;;;;12.85;8.55;;;24.10;48.10;;;;;;7679116;22;80761;-47
2022/10/12 01:17:38;;;;;;;11.77;8.82;;;24.10;48.10;;;;;;7650214;22;83115;-52
2022/10/12 01:20:39;;;;;;;13.50;8.45;;;24.10;48.10;;;;;;7679271;22;80210;-49
2022/10/12 01:23:40;;;;;;;10.18;7.70;;;24.10;48.00;;;;;;7678799;22;80512;-48
2022/10/12 01:26:40;;;;;;;10.93;8.13;;;24.10;47.90;;;;;;7677083;22;81633;-48
2022/10/12 01:29:40;;;;;;;10.70;8.75;;;24.10;47.80;;;;;;7679669;22;80149;-48
2022/10/12 01:32:41;;;;;;;12.02;9.13;;;24.10;47.80;;;;;;7679106;22;81095;-52
2022/10/12 01:35:41;;;;;;;10.57;7.78;;;24.10;47.80;;;;;;7680587;22;80683;-51
2022/10/12 01:38:42;;;;;;;13.15;7.85;;;24.10;47.90;;;;;;7680220;22;80830;-51
2022/10/12 01:41:42;;;;;;;11.25;8.18;;;24.10;47.80;;;;;;7677642;22;80486;-50
2022/10/12 01:44:43;;;;;;;10.40;8.38;;;24.00;47.60;;;;;;7676606;22;80969;-52
2022/10/12 01:47:43;;;;;;;10.50;8.07;;;24.00;47.60;;;;;;7678926;22;81803;-53
2022/10/12 01:50:44;;;;;;;12.40;8.75;;;24.10;47.60;;;;;;7651936;22;80788;-47
2022/10/12 01:53:44;;;;;;;11.02;8.07;;;24.00;47.60;;;;;;7677741;22;80604;-49
2022/10/12 01:56:45;;;;;;;10.80;8.55;;;24.00;47.50;;;;;;7681546;22;81421;-47
2022/10/12 01:59:45;;;;;;;10.43;8.10;;;24.00;47.60;;;;;;7678801;22;81168;-50
2022/10/12 02:02:46;;;;;;;12.35;8.30;;;24.00;47.70;;;;;;7652394;22;83273;-51
2022/10/12 02:05:47;;;;;;;10.50;7.95;;;24.00;47.60;;;;;;7680368;22;80142;-48
2022/10/12 02:08:47;;;;;;;11.43;8.10;;;24.00;48.20;;;;;;7679543;22;80893;-50
2022/10/12 02:11:48;;;;;;;11.10;8.85;;;24.00;47.60;;;;;;7678430;22;80213;-47
2022/10/12 02:14:48;;;;;;;12.50;8.85;;;24.00;47.50;;;;;;7679816;22;81565;-50
2022/10/12 02:17:49;;;;;;;10.27;8.15;;;24.00;47.50;;;;;;7677825;22;80298;-49
2022/10/12 02:20:49;;;;;;;10.38;7.95;;;24.00;47.60;;;;;;7679760;22;80265;-47
2022/10/12 02:23:50;;;;;;;10.18;8.27;;;24.00;47.50;;;;;;7651355;22;82339;-48
2022/10/12 02:26:50;;;;;;;11.32;8.55;;;24.00;47.60;;;;;;7675655;22;82287;-51
2022/10/12 02:29:51;;;;;;;13.05;9.02;;;24.00;47.60;;;;;;7678780;22;80635;-61
2022/10/12 02:32:51;;;;;;;12.98;8.35;;;24.00;47.70;;;;;;7681164;22;80776;-62
2022/10/12 02:35:52;;;;;;;10.60;8.77;;;24.00;47.70;;;;;;7678631;22;80499;-62
2022/10/12 02:38:52;;;;;;;9.27;8.25;;;24.00;47.60;;;;;;7679499;22;82072;-62
2022/10/12 02:41:53;;;;;;;13.02;8.75;;;24.00;47.70;;;;;;7677338;22;80929;-62
2022/10/12 02:44:53;;;;;;;13.38;8.95;;;24.00;47.60;;;;;;7681853;22;80501;-61
2022/10/12 02:47:54;;;;;;;10.80;8.13;;;24.00;47.60;;;;;;7678586;22;80560;-62
2022/10/12 02:50:54;;;;;;;10.88;8.75;;;24.00;47.50;;;;;;7681330;22;80437;-61
2022/10/12 02:53:55;;;;;;;13.23;9.52;;;24.00;47.60;;;;;;7680371;22;80770;-63
2022/10/12 02:56:55;;;;;;;11.35;8.48;;;24.00;47.60;;;;;;7678324;22;80104;-62
2022/10/12 02:59:56;;;;;;;12.48;8.18;;;24.00;47.50;;;;;;7681510;22;80830;-62
2022/10/12 03:02:56;;;;;;;10.77;8.27;;;24.00;47.50;;;;;;7679248;22;80320;-62
2022/10/12 03:05:57;;;;;;;14.38;9.02;;;24.00;47.50;;;;;;7678301;22;81156;-61
2022/10/12 03:08:57;;;;;;;14.38;9.45;;;24.00;47.60;;;;;;7679558;22;80379;-61
2022/10/12 03:11:58;;;;;;;13.35;8.70;;;24.00;47.20;;;;;;7678572;22;81222;-62
2022/10/12 03:14:58;;;;;;;13.82;9.18;;;24.00;47.10;;;;;;7679675;22;81040;-61
2022/10/12 03:17:59;;;;;;;9.60;8.07;;;24.00;47.10;;;;;;7677706;22;80664;-62
2022/10/12 03:20:59;;;;;;;15.52;9.23;;;24.00;46.90;;;;;;7677986;22;80314;-61
2022/10/12 03:24:00;;;;;;;12.25;8.70;;;24.10;46.90;;;;;;7679991;22;80430;-62
2022/10/12 03:27:01;;;;;;;9.93;7.95;;;24.10;46.90;;;;;;7678098;22;80471;-62
2022/10/12 03:30:01;;;;;;;10.00;8.02;;;24.20;46.90;;;;;;7680428;22;80371;-62
2022/10/12 03:33:02;;;;;;;11.30;8.68;;;24.20;46.90;;;;;;7675567;22;80252;-62
2022/10/12 03:36:02;;;;;;;11.77;8.65;;;24.20;46.70;;;;;;7678232;22;80713;-61
2022/10/12 03:39:03;;;;;;;14.25;8.95;;;24.30;46.70;;;;;;7679846;22;80359;-61
2022/10/12 03:42:03;;;;;;;12.30;9.20;;;24.30;46.60;;;;;;7678612;22;80174;-49
2022/10/12 03:45:04;;;;;;;10.68;7.90;;;24.30;46.50;;;;;;7678116;22;80362;-50
2022/10/12 03:48:04;;;;;;;10.25;8.23;;;24.30;46.50;;;;;;7679217;22;80328;-48
2022/10/12 03:51:05;;;;;;;10.85;8.05;;;24.30;46.40;;;;;;7680138;22;80262;-49
2022/10/12 03:54:06;;;;;;;10.23;8.18;;;24.30;46.50;;;;;;7678062;22;80364;-47
2022/10/12 03:57:06;;;;;;;10.73;8.27;;;24.40;46.60;;;;;;7677893;22;80387;-50
2022/10/12 04:00:07;;;;;;;11.93;8.82;;;24.40;46.50;;;;;;7678959;22;80378;-50
2022/10/12 04:03:11;;;;;;;9.80;7.85;;;24.40;46.40;;;;;;7679397;22;80608;-51
2022/10/12 04:06:12;;;;;;;11.70;8.18;;;24.40;46.50;;;;;;7676594;22;80382;-51
2022/10/12 04:09:12;;;;;;;11.23;8.38;;;24.40;46.40;;;;;;7678245;22;80338;-49
2022/10/12 04:12:13;;;;;;;10.95;8.27;;;24.40;46.50;;;;;;7677882;22;80468;-49
2022/10/12 04:15:13;;;;;;;11.82;8.50;;;24.40;46.50;;;;;;7678767;22;80313;-51
2022/10/12 04:18:14;;;;;;;10.88;8.10;;;24.40;46.50;;;;;;7677475;22;80482;-51
2022/10/12 04:21:14;;;;;;;14.68;9.15;;;24.50;46.70;;;;;;7679458;22;80404;-58
2022/10/12 04:24:15;;;;;;;15.35;8.50;;;24.50;46.80;;;;;;7677239;22;81594;-49
2022/10/12 04:27:15;;;;;;;16.73;8.65;;;24.50;46.90;;;;;;7680454;22;80341;-49
2022/10/12 04:30:16;;;;;;;11.52;8.20;;;24.50;46.90;;;;;;7673332;22;81913;-47
2022/10/12 04:33:16;;;;;;;15.30;8.82;;;24.50;47.00;;;;;;7662940;22;80636;-49
2022/10/12 04:36:17;;;;;;;10.57;7.75;;;24.50;47.10;;;;;;7676604;22;81727;-51
2022/10/12 04:39:17;;;;;;;12.57;8.60;;;24.50;47.00;;;;;;7649444;22;80644;-53
2022/10/12 04:42:18;;;;;;;18.25;9.43;;;24.50;46.90;;;;;;7671168;22;81700;-51
2022/10/12 04:45:18;;;;;;;12.93;8.60;;;24.50;46.90;;;;;;7677058;22;81118;-53
2022/10/12 04:48:19;;;;;;;13.85;8.95;;;24.60;47.00;;;;;;7679350;22;80479;-55
2022/10/12 04:51:19;;;;;;;13.50;8.93;;;24.60;47.00;;;;;;7678993;22;80619;-52
2022/10/12 04:54:20;;;;;;;18.10;9.00;;;24.60;46.70;;;;;;7671717;22;81092;-46
2022/10/12 04:57:20;;;;;;;14.45;9.63;;;24.60;46.90;;;;;;7674417;22;81389;-51
2022/10/12 05:00:21;;;;;;;15.32;9.27;;;24.60;46.50;;;;;;7678665;22;81128;-45
2022/10/12 05:03:21;;;;;;;23.63;9.07;;;24.60;46.80;;;;;;7662949;22;80297;-46
2022/10/12 05:06:22;;;;;;;19.17;9.60;;;24.60;47.00;;;;;;7662997;22;81755;-51
2022/10/12 05:09:22;;;;;;;14.00;8.70;;;24.60;47.10;;;;;;7661824;22;81378;-47
2022/10/12 05:12:23;;;;;;;13.80;8.80;;;24.60;47.10;;;;;;7663920;22;81128;-46
2022/10/12 05:15:24;;;;;;;14.95;9.98;;;24.60;47.20;;;;;;7672347;22;80378;-57
2022/10/12 05:18:24;;;;;;;15.98;9.20;;;24.60;47.10;;;;;;7672605;22;83303;-59
2022/10/12 05:21:24;;;;;;;14.68;8.95;;;24.60;46.80;;;;;;7650589;22;84181;-61
2022/10/12 05:24:25;;;;;;;14.02;9.38;;;24.60;47.00;;;;;;7679109;22;81314;-61
2022/10/12 05:27:25;;;;;;;15.43;9.60;;;24.60;46.70;;;;;;7677187;22;80440;-59
2022/10/12 05:30:26;;;;;;;14.63;9.25;;;24.60;46.50;;;;;;7678093;22;80563;-59
2022/10/12 05:33:26;;;;;;;13.10;9.25;;;24.50;46.90;;;;;;7680239;22;80214;-62
2022/10/12 05:36:27;;;;;;;14.48;9.45;;;24.50;47.20;;;;;;7677442;22;80898;-61
2022/10/12 05:39:27;;;;;;;19.52;10.07;;;24.60;47.00;;;;;;7680969;22;80892;-60
2022/10/12 05:42:28;;;;;;;15.35;9.65;;;24.60;47.00;;;;;;7670763;22;83294;-63
2022/10/12 05:45:28;;;;;;;15.88;8.93;;;24.60;46.90;;;;;;7670874;22;82881;-65
2022/10/12 05:48:29;;;;;;;17.30;9.65;;;24.60;47.00;;;;;;7669712;22;80987;-62
2022/10/12 05:51:29;;;;;;;18.48;9.93;;;24.60;46.90;;;;;;7678808;22;80142;-61
2022/10/12 05:54:30;;;;;;;15.77;9.68;;;24.60;46.60;;;;;;7675880;22;80529;-61
2022/10/12 05:57:30;;;;;;;16.58;10.75;;;24.50;46.70;;;;;;7649051;22;81551;-60
2022/10/12 06:00:31;;;;;;;16.38;10.02;;;24.60;46.80;;;;;;7670585;22;83129;-61
2022/10/12 06:03:31;;;;;;;13.80;9.20;;;24.60;46.80;;;;;;7670627;22;83214;-60
2022/10/12 06:06:32;;;;;;;15.55;9.57;;;24.60;46.70;;;;;;7673378;22;83089;-61
2022/10/12 06:09:32;;;;;;;13.65;9.23;;;24.60;46.70;;;;;;7669649;22;80434;-62
2022/10/12 06:12:33;;;;;;;14.75;9.60;;;24.60;46.40;;;;;;7671845;22;80933;-61
2022/10/12 06:15:33;;;;;;;16.77;10.02;;;24.60;46.30;;;;;;7675740;22;80459;-61
2022/10/12 06:18:34;;;;;;;14.85;10.00;;;24.50;46.10;;;;;;7672300;22;82986;-61
2022/10/12 06:21:34;;;;;;;15.95;10.75;;;24.50;46.10;;;;;;7675739;22;82835;-61
2022/10/12 06:24:36;;;;;;;25.33;11.02;;;24.50;45.90;;;;;;7673696;22;83413;-61
2022/10/12 06:27:36;;;;;;;18.48;11.05;;;24.50;46.00;;;;;;7675261;22;82900;-61
2022/10/12 06:30:37;;;;;;;23.10;12.20;;;24.50;45.60;;;;;;7675553;22;82995;-60
2022/10/12 06:33:37;;;;;;;21.63;13.45;;;24.40;44.90;;;;;;7675352;22;84075;-60
2022/10/12 06:36:38;;;;;;;22.45;13.38;;;24.30;44.80;;;;;;7675602;22;83348;-61
2022/10/12 06:39:38;;;;;;;27.52;13.30;;;24.30;44.80;;;;;;7672934;22;84199;-60
2022/10/12 06:42:39;;;;;;;26.23;13.32;;;24.20;44.50;;;;;;7674578;22;83010;-61
2022/10/12 06:45:40;;;;;;;26.38;12.73;;;24.20;44.50;;;;;;7645803;22;83587;-58
2022/10/12 06:48:40;;;;;;;26.63;14.30;;;24.10;44.80;;;;;;7674863;22;84334;-58
2022/10/12 06:51:41;;;;;;;25.00;13.98;;;24.10;44.50;;;;;;7668994;22;83338;-58
2022/10/12 06:54:41;;;;;;;27.83;14.27;;;24.10;44.40;;;;;;7669586;22;89853;-58
2022/10/12 06:57:42;;;;;;;24.40;14.38;;;24.10;44.20;;;;;;7670140;22;84450;-58
2022/10/12 07:00:42;;;;;;;23.45;14.52;;;24.10;43.90;;;;;;7670064;22;82839;-58
2022/10/12 07:03:43;;;;;;;37.58;22.75;;;24.10;44.10;;;;;;7664823;22;83152;-59
2022/10/12 07:06:43;;;;;;;91.22;47.30;;;24.10;44.20;;;;;;7660355;22;84674;-59
2022/10/12 07:09:44;;;;;;;154.65;83.63;;;24.10;44.30;;;;;;7639820;22;83810;-59
2022/10/12 07:12:45;;;;;;;167.32;90.38;;;24.20;44.00;;;;;;7674395;22;83529;-57
2022/10/12 07:15:45;;;;;;;151.90;74.40;;;24.20;43.50;;;;;;7672281;22;83441;-58
2022/10/12 07:18:46;;;;;;;126.82;65.00;;;24.20;43.80;;;;;;7664224;22;82919;-59
2022/10/12 07:21:46;;;;;;;112.10;58.97;;;24.20;43.70;;;;;;7655814;22;83252;-58
2022/10/12 07:24:47;;;;;;;101.78;53.60;;;24.10;43.70;;;;;;7666604;22;83411;-59
2022/10/12 07:27:47;;;;;;;87.85;47.25;;;24.10;43.70;;;;;;7650234;22;83377;-57
2022/10/12 07:30:48;;;;;;;78.38;41.70;;;24.20;43.60;;;;;;7674209;22;84042;-59
2022/10/12 07:33:48;;;;;;;59.67;35.70;;;24.10;43.70;;;;;;7676194;22;82702;-59
2022/10/12 07:36:49;;;;;;;58.45;32.20;;;24.10;43.70;;;;;;7641951;22;84650;-59
2022/10/12 07:39:49;;;;;;;53.92;29.65;;;24.10;43.60;;;;;;7674459;22;82797;-59
2022/10/12 07:42:50;;;;;;;43.08;24.55;;;24.00;43.70;;;;;;7674959;22;83287;-61
2022/10/12 07:45:50;;;;;;;37.00;22.60;;;24.00;43.50;;;;;;7673239;22;83024;-61
2022/10/12 07:48:51;;;;;;;36.47;21.17;;;24.00;43.80;;;;;;7670499;22;83885;-62
2022/10/12 07:51:51;;;;;;;29.60;18.65;;;23.90;43.70;;;;;;7671474;22;84801;-61
2022/10/12 07:54:52;;;;;;;31.20;18.25;;;23.90;43.70;;;;;;7672502;22;83219;-61
2022/10/12 07:57:52;;;;;;;40.22;17.35;;;23.90;44.30;;;;;;7673382;22;83216;-61
2022/10/12 08:00:53;;;;;;;53.70;18.92;;;23.80;43.80;;;;;;7671724;22;83309;-61
2022/10/12 08:03:53;;;;;;;41.20;18.38;;;23.80;43.80;;;;;;7675210;22;83147;-63
2022/10/12 08:06:54;;;;;;;39.13;16.83;;;23.70;43.80;;;;;;7674716;22;82538;-62
2022/10/12 08:09:55;;;;;;;29.50;16.65;;;23.70;43.80;;;;;;7646992;22;83473;-62
2022/10/12 08:12:55;;;;;;;28.17;16.52;;;23.70;44.20;;;;;;7676122;22;83216;-62
2022/10/12 08:15:56;;;;;;;27.15;17.00;;;23.60;44.20;;;;;;7645425;22;83164;-62
2022/10/12 08:18:56;;;;;;;23.15;14.48;;;23.60;44.20;;;;;;7673689;22;82970;-59
2022/10/12 08:21:57;;;;;;;23.95;15.30;;;23.70;44.30;;;;;;7676572;22;82945;-59
2022/10/12 08:24:57;;;;;;;23.83;15.32;;;23.70;44.20;;;;;;7674863;22;83324;-59
2022/10/12 08:27:58;;;;;;;27.60;14.70;;;23.70;44.70;;;;;;7672227;22;84661;-59
2022/10/12 08:30:58;;;;;;;21.95;14.90;;;23.80;44.30;;;;;;7646100;22;85900;-59
2022/10/12 08:33:59;;;;;;;21.73;14.35;;;23.80;44.20;;;;;;7676956;22;84115;-60
2022/10/12 08:37:00;;;;;;;23.30;14.27;;;23.70;44.20;;;;;;7673720;22;83690;-59
2022/10/12 08:40:00;;;;;;;26.30;14.10;;;23.70;44.20;;;;;;7672841;22;83857;-58
2022/10/12 08:43:01;;;;;;;25.80;14.98;;;23.70;44.30;;;;;;7674530;22;83634;-59
2022/10/12 08:46:01;;;;;;;24.50;14.98;;;23.70;44.20;;;;;;7674079;22;82730;-59
2022/10/12 08:49:03;;;;;;;25.17;14.73;;;23.70;44.20;;;;;;7676072;22;83226;-59
2022/10/12 08:52:05;;;;;;;28.00;15.30;;;23.80;44.20;;;;;;7673749;22;82994;-59
2022/10/12 08:55:05;;;;;;;24.45;15.00;;;23.90;44.20;;;;;;7675382;22;84041;-60
2022/10/12 08:58:06;;;;;;;30.85;15.63;;;23.90;44.10;;;;;;7676367;22;83249;-59
2022/10/12 09:01:06;;;;;;;34.38;16.65;;;23.90;44.00;;;;;;7673183;22;83756;-58
2022/10/12 09:04:08;;;;;;;32.90;17.15;;;24.00;44.10;;;;;;7675006;22;83282;-60
2022/10/12 09:07:08;;;;;;;27.33;14.95;;;24.10;44.10;;;;;;7670871;22;83343;-59
2022/10/12 09:10:09;;;;;;;30.25;15.13;;;24.20;44.30;;;;;;7673500;22;82777;-57
2022/10/12 09:13:11;;;;;;;30.98;15.50;;;24.30;44.50;;;;;;7674250;22;83633;-59
2022/10/12 09:16:12;;;;;;;38.53;16.42;;;24.40;44.30;;;;;;7673762;22;83137;-59
2022/10/12 09:19:13;;;;;;;37.20;16.77;;;24.40;44.30;;;;;;7673188;22;83045;-59
2022/10/12 09:22:13;;;;;;;32.90;15.90;;;24.30;44.10;;;;;;7669244;22;83773;-57
2022/10/12 09:25:14;;;;;;;32.97;17.38;;;24.40;44.40;;;;;;7670193;22;83273;-57
2022/10/12 09:28:14;;;;;;;37.83;17.40;;;24.40;44.40;;;;;;7669922;22;83071;-58
2022/10/12 09:31:16;;;;;;;43.17;16.75;;;24.40;44.50;;;;;;7671387;22;82807;-56
2022/10/12 09:34:16;;;;;;;26.98;15.10;;;24.40;44.40;;;;;;7670661;22;83125;-58
2022/10/12 09:37:17;;;;;;;35.25;15.77;;;24.40;44.70;;;;;;7675349;22;82808;-58
2022/10/12 09:40:17;;;;;;;25.38;13.55;;;24.50;44.50;;;;;;7676668;22;84626;-58
2022/10/12 09:43:17;;;;;;;30.63;14.57;;;24.50;44.10;;;;;;7676749;22;83170;-58
2022/10/12 09:46:18;;;;;;;23.80;13.02;;;24.50;44.00;;;;;;7675273;22;83428;-59
2022/10/12 09:49:19;;;;;;;30.02;13.27;;;24.60;44.10;;;;;;7667671;22;83557;-58
2022/10/12 09:52:19;;;;;;;25.42;12.98;;;24.60;43.90;;;;;;7670908;22;83417;-59
2022/10/12 09:55:20;;;;;;;21.85;12.50;;;24.70;43.50;;;;;;7670170;22;83021;-59
2022/10/12 09:58:20;;;;;;;32.95;16.08;;;24.60;43.60;;;;;;7675669;22;83092;-58
2022/10/12 10:01:22;;;;;;;158.90;64.93;;;24.70;43.60;;;;;;7676827;22;84296;-58
2022/10/12 10:04:22;;;;;;;440.42;194.38;;;24.70;43.40;;;;;;7667210;22;83817;-58
2022/10/12 10:07:23;;;;;;;533.63;244.60;;;24.80;43.40;;;;;;7673675;22;85502;-57
2022/10/12 10:10:23;;;;;;;523.72;230.68;;;24.90;43.50;;;;;;7646378;22;86133;-58
2022/10/12 10:13:24;;;;;;;573.67;258.52;;;24.90;43.30;;;;;;7667669;22;85226;-59
2022/10/12 10:16:24;;;;;;;563.03;259.40;;;25.00;43.40;;;;;;7672376;22;85196;-57
2022/10/12 10:19:25;;;;;;;541.28;246.55;;;25.10;43.50;;;;;;7670301;22;85731;-55
2022/10/12 10:22:25;;;;;;;426.63;173.57;;;25.10;43.60;;;;;;7675265;22;85321;-59
2022/10/12 10:25:26;;;;;;;341.05;143.45;;;25.20;43.80;;;;;;7671262;22;85632;-59
2022/10/12 10:28:26;;;;;;;304.27;126.20;;;25.20;43.30;;;;;;7671166;22;86268;-58
2022/10/12 10:31:28;;;;;;;213.18;87.82;;;25.30;43.70;;;;;;7674653;22;85501;-57
2022/10/12 10:34:28;;;;;;;195.32;79.88;;;25.30;43.00;;;;;;7676202;22;85355;-58
2022/10/12 10:37:29;;;;;;;154.85;68.03;;;25.30;42.60;;;;;;7670637;22;83455;-57
2022/10/12 10:40:29;;;;;;;130.18;56.70;;;25.40;42.50;;;;;;7678921;22;82996;-57
2022/10/12 10:43:30;;;;;;;102.07;37.28;;;25.40;42.20;;;;;;7673032;22;83745;-68
2022/10/12 10:46:31;;;;;;;88.00;36.65;;;25.40;41.40;;;;;;7668405;22;83344;-68
2022/10/12 10:49:32;;;;;;;93.72;38.92;;;25.50;41.90;;;;;;7644170;22;85431;-65
2022/10/12 10:52:32;;;;;;;72.15;32.63;;;25.50;42.30;;;;;;7671156;22;83039;-66
2022/10/12 10:55:33;;;;;;;75.78;33.13;;;25.60;42.90;;;;;;7671940;22;84163;-68
2022/10/12 10:58:33;;;;;;;65.05;30.25;;;25.60;42.30;;;;;;7671131;22;82928;-69
2022/10/12 11:01:34;;;;;;;71.03;31.13;;;25.70;42.20;;;;;;7678205;22;83449;-66
2022/10/12 11:04:34;;;;;;;68.70;27.23;;;25.70;42.50;;;;;;7669398;22;83408;-66
2022/10/12 11:07:35;;;;;;;56.08;22.73;;;25.70;42.30;;;;;;7672997;22;82973;-66
2022/10/12 11:10:35;;;;;;;39.20;18.58;;;25.70;41.70;;;;;;7672477;22;83918;-65
2022/10/12 11:13:36;;;;;;;26.02;11.70;;;25.80;41.30;;;;;;7675007;22;83194;-64
2022/10/12 11:16:36;;;;;;;27.13;12.15;;;25.60;39.50;;;;;;7672172;22;83092;-63
2022/10/12 11:19:37;;;;;;;28.92;13.82;;;25.50;40.20;;;;;;7671286;22;84469;-70
2022/10/12 11:22:39;;;;;;;21.27;11.43;;;25.60;40.90;;;;;;7668505;22;83929;-55
2022/10/12 11:25:39;;;;;;;27.98;11.75;;;25.70;41.20;;;;;;7661435;22;82964;-56
2022/10/12 11:28:40;;;;;;;18.40;9.55;;;25.70;41.10;;;;;;7674977;22;84167;-56
2022/10/12 11:31:41;;;;;;;22.38;9.88;;;25.70;40.90;;;;;;7679776;22;83178;-54
2022/10/12 11:34:42;;;;;;;17.85;8.63;;;25.70;40.90;;;;;;7681837;22;80768;-55
2022/10/12 11:37:42;;;;;;;17.65;7.90;;;25.70;40.50;;;;;;7680091;22;82152;-55
2022/10/12 11:40:43;;;;;;;19.48;8.02;;;25.70;40.40;;;;;;7668804;22;80413;-56
2022/10/12 11:43:43;;;;;;;12.18;6.72;;;25.70;40.50;;;;;;7672550;22;79955;-57
2022/10/12 11:46:44;;;;;;;12.30;6.15;;;25.80;40.30;;;;;;7675738;22;80622;-54
2022/10/12 11:49:44;;;;;;;17.75;6.82;;;25.70;40.10;;;;;;7649552;22;81459;-55
2022/10/12 11:52:45;;;;;;;11.80;5.10;;;25.80;39.80;;;;;;7679328;22;81208;-53
2022/10/12 11:55:45;;;;;;;15.75;6.30;;;25.90;39.90;;;;;;7677335;22;81486;-56
2022/10/12 11:58:46;;;;;;;14.00;6.28;;;25.90;40.10;;;;;;7680940;22;80496;-65
2022/10/12 12:01:47;;;;;;;13.10;5.07;;;25.90;40.00;;;;;;7679149;22;81451;-65
2022/10/12 12:04:47;;;;;;;11.07;5.28;;;26.00;40.30;;;;;;7679911;22;80179;-65
2022/10/12 12:07:48;;;;;;;15.05;8.52;;;26.00;40.50;;;;;;7653022;22;80981;-65
2022/10/12 12:10:48;;;;;;;19.35;12.93;;;26.00;40.70;;;;;;7679693;22;80327;-66
2022/10/12 12:13:49;;;;;;;26.17;18.85;;;26.00;40.40;;;;;;7675840;22;83099;-66
2022/10/12 12:16:50;;;;;;;35.03;20.38;;;26.10;40.70;;;;;;7676849;22;82972;-67
2022/10/12 12:19:51;;;;;;;29.13;20.58;;;26.10;40.80;;;;;;7677407;22;82908;-67
2022/10/12 12:22:53;;;;;;;37.75;23.52;;;26.10;41.00;;;;;;7679422;22;83382;-67
2022/10/12 12:25:53;;;;;;;34.67;21.17;;;26.10;41.60;;;;;;7671281;22;84257;-69
2022/10/12 12:28:54;;;;;;;26.75;15.75;;;26.10;41.60;;;;;;7676756;22;83147;-69
2022/10/12 12:31:55;;;;;;;22.65;15.88;;;26.20;40.90;;;;;;7676555;22;84814;-69
2022/10/12 12:34:55;;;;;;;26.77;15.98;;;26.20;41.20;;;;;;7678320;22;82920;-54
2022/10/12 12:37:56;;;;;;;24.80;14.20;;;26.20;41.50;;;;;;7672502;22;84203;-55
2022/10/12 12:40:56;;;;;;;20.48;12.57;;;26.20;41.30;;;;;;7676117;22;83072;-55
2022/10/12 12:43:57;;;;;;;17.75;11.48;;;26.20;41.00;;;;;;7672429;22;84242;-59
2022/10/12 12:46:58;;;;;;;19.02;10.48;;;26.20;41.00;;;;;;7670676;22;83398;-56
2022/10/12 12:49:59;;;;;;;17.10;9.13;;;26.20;40.70;;;;;;7672618;22;83046;-55
2022/10/12 12:52:59;;;;;;;15.90;8.70;;;26.20;40.30;;;;;;7654896;22;83006;-57
2022/10/12 12:56:00;;;;;;;17.05;6.90;;;26.20;40.70;;;;;;7679866;22;80458;-63
2022/10/12 12:59:01;;;;;;;15.75;7.05;;;26.20;40.80;;;;;;7680564;22;80361;-56
2022/10/12 13:02:01;;;;;;;9.98;5.82;;;26.10;40.60;;;;;;7666234;22;82753;-55
2022/10/12 13:05:02;;;;;;;15.50;6.40;;;26.10;41.00;;;;;;7638684;22;80508;-56
2022/10/12 13:08:02;;;;;;;11.98;6.20;;;26.10;40.00;;;;;;7639925;22;80485;-54
2022/10/12 13:11:03;;;;;;;16.70;5.88;;;26.10;40.30;;;;;;7642048;22;80784;-56
2022/10/12 13:14:03;;;;;;;7.90;4.57;;;26.10;40.10;;;;;;7640756;22;80394;-56
2022/10/12 13:17:04;;;;;;;9.80;4.95;;;26.00;39.20;;;;;;7643833;22;80724;-56
2022/10/12 13:20:05;;;;;;;9.15;4.57;;;26.00;39.70;;;;;;7642838;22;80299;-55
2022/10/12 13:23:06;;;;;;;11.05;5.20;;;26.00;39.60;;;;;;7645541;22;80815;-57
2022/10/12 13:26:07;;;;;;;9.38;4.20;;;25.90;39.40;;;;;;7641845;22;80614;-57
2022/10/12 13:29:07;;;;;;;8.73;4.72;;;25.90;39.30;;;;;;7643561;22;80071;-57
2022/10/12 13:32:08;;;;;;;9.30;4.35;;;25.90;38.80;;;;;;7645148;22;80210;-56
2022/10/12 13:35:08;;;;;;;8.55;4.20;;;25.90;39.30;;;;;;7643177;22;80112;-54
2022/10/12 13:38:09;;;;;;;6.38;3.45;;;25.80;38.80;;;;;;7643365;22;80294;-55
2022/10/12 13:41:09;;;;;;;8.50;3.85;;;25.80;38.80;;;;;;7642487;22;80039;-55
2022/10/12 13:44:11;;;;;;;11.90;4.25;;;25.80;39.70;;;;;;7642669;22;80558;-55
2022/10/12 13:47:12;;;;;;;10.35;3.78;;;25.80;39.60;;;;;;7646101;22;80282;-53
2022/10/12 13:50:13;;;;;;;7.35;3.70;;;25.80;39.50;;;;;;7639253;22;80845;-55
2022/10/12 13:53:13;;;;;;;9.45;3.22;;;25.80;39.30;;;;;;7638268;22;81222;-56
2022/10/12 13:56:14;;;;;;;12.95;3.22;;;25.80;40.30;;;;;;7644859;22;80255;-55
2022/10/12 13:59:15;;;;;;;6.28;3.28;;;25.80;40.40;;;;;;7643754;22;81796;-56
2022/10/12 14:02:15;;;;;;;6.28;2.97;;;25.70;40.20;;;;;;7658598;22;80754;-61
2022/10/12 14:05:16;;;;;;;8.68;4.10;;;25.80;40.20;;;;;;7678875;22;80423;-55
2022/10/12 14:08:17;;;;;;;9.73;3.25;;;25.70;40.40;;;;;;7679547;22;80310;-57
2022/10/12 14:11:18;;;;;;;6.75;3.03;;;25.70;40.50;;;;;;7679961;22;80914;-58
2022/10/12 14:14:18;;;;;;;7.82;3.17;;;25.80;40.60;;;;;;7680757;22;80481;-52
2022/10/12 14:17:19;;;;;;;7.47;3.58;;;25.80;40.40;;;;;;7653044;22;83307;-56
2022/10/12 14:20:19;;;;;;;6.57;3.33;;;25.80;40.00;;;;;;7673758;22;81184;-56
2022/10/12 14:23:20;;;;;;;7.50;3.38;;;25.80;40.10;;;;;;7674347;22;80469;-57
2022/10/12 14:26:20;;;;;;;7.50;3.40;;;25.80;40.30;;;;;;7672527;22;80568;-55
2022/10/12 14:29:21;;;;;;;8.50;3.58;;;25.90;40.50;;;;;;7674244;22;80879;-54
2022/10/12 14:32:21;;;;;;;6.80;2.65;;;25.90;40.70;;;;;;7674545;22;81692;-54
2022/10/12 14:35:22;;;;;;;9.60;2.95;;;25.80;40.50;;;;;;7675767;22;80215;-55
2022/10/12 14:38:23;;;;;;;6.00;3.17;;;25.90;40.70;;;;;;7674485;22;80472;-54
2022/10/12 14:41:23;;;;;;;8.35;2.97;;;25.90;40.60;;;;;;7670858;22;80745;-56
2022/10/12 14:44:25;;;;;;;11.57;3.05;;;25.90;40.60;;;;;;7663376;22;81391;-54
2022/10/12 14:47:26;;;;;;;7.78;3.30;;;25.80;40.50;;;;;;7659673;22;80662;-55
2022/10/12 14:50:27;;;;;;;11.82;3.25;;;25.80;40.40;;;;;;7660742;22;80697;-56
2022/10/12 14:53:28;;;;;;;7.20;3.10;;;25.80;40.50;;;;;;7663995;22;81547;-54
2022/10/12 14:56:28;;;;;;;10.57;3.75;;;25.70;40.30;;;;;;7674961;22;80293;-56
2022/10/12 14:59:29;;;;;;;6.38;3.30;;;25.70;40.40;;;;;;7680061;22;80641;-53
2022/10/12 15:02:30;;;;;;;7.00;3.25;;;25.70;40.40;;;;;;7678761;22;80909;-67
2022/10/12 15:05:33;;;;;;;5.82;3.13;;;25.70;40.40;;;;;;7683377;22;81304;-69
2022/10/12 15:08:34;;;;;;;16.20;3.58;;;25.70;40.60;;;;;;7674453;22;84724;-66
2022/10/12 15:11:34;;;;;;;10.93;3.45;;;25.60;40.40;;;;;;7678843;22;80482;-67
2022/10/12 15:14:35;;;;;;;7.03;3.05;;;25.60;40.70;;;;;;7676605;22;80836;-65
2022/10/12 15:17:36;;;;;;;7.53;3.47;;;25.60;40.60;;;;;;7676919;22;80615;-65
2022/10/12 15:20:36;;;;;;;6.93;3.33;;;25.50;40.70;;;;;;7681564;22;81836;-55
2022/10/12 15:23:37;;;;;;;9.35;3.10;;;25.50;41.00;;;;;;7679662;22;82237;-54